Time;durP1;ratioP1;P1;durP2;ratioP2;P2;SDS_P1;SDS_P2;PMS_P1;PMS_P2;Temp;Humidity;BMP_temperature;BMP_pressure;BME280_temperature;BME280_humidity;BME280_pressure;Samples;Min_cycle;Max_cycle;Signal;HPM_P1;HPM_P2
2023/04/01 00:00:24;;;;;;;12.82;8.82;;;;;;;;;;5045399;28;20040;-76
2023/04/01 00:02:49;;;;;;;13.43;8.73;;;;;;;;;;5050522;28;20021;-76
2023/04/01 00:05:16;;;;;;;12.45;8.95;;;;;;;;;;5053491;28;20032;-65
2023/04/01 00:07:42;;;;;;;13.75;9.45;;;;;;;;;;5053874;28;20115;-67
2023/04/01 00:10:10;;;;;;;19.48;9.82;;;;;;;;;;5053905;28;20075;-73
2023/04/01 00:12:36;;;;;;;14.07;9.52;;;;;;;;;;5053711;28;20100;-77
2023/04/01 00:15:02;;;;;;;20.92;10.05;;;;;;;;;;5053377;28;20048;-74
2023/04/01 00:17:28;;;;;;;29.67;10.98;;;;;;;;;;5053501;28;20029;-72
2023/04/01 00:19:56;;;;;;;16.95;10.20;;;;;;;;;;5053576;28;20048;-77
2023/04/01 00:22:22;;;;;;;17.85;10.40;;;;;;;;;;5051073;28;20013;-76
2023/04/01 00:24:48;;;;;;;16.95;9.75;;;;;;;;;;5053453;28;20062;-71
2023/04/01 00:27:14;;;;;;;17.15;10.20;;;;;;;;;;5053399;28;20385;-76
2023/04/01 00:29:43;;;;;;;16.35;9.73;;;;;;;;;;5050534;28;20068;-75
2023/04/01 00:32:09;;;;;;;21.95;10.68;;;;;;;;;;5051781;28;20013;-75
2023/04/01 00:34:35;;;;;;;18.67;10.93;;;;;;;;;;5049207;28;20447;-76
2023/04/01 00:37:00;;;;;;;18.38;10.90;;;;;;;;;;5052360;28;20029;-69
2023/04/01 00:39:29;;;;;;;17.60;11.02;;;;;;;;;;5052425;28;20029;-71
2023/04/01 00:41:54;;;;;;;18.35;11.23;;;;;;;;;;5052169;28;20056;-72
2023/04/01 00:44:31;;;;;;;18.98;11.00;;;;;;;;;;5049276;28;20048;-73
2023/04/01 00:46:57;;;;;;;16.35;11.10;;;;;;;;;;5052089;28;20111;-76
2023/04/01 00:49:26;;;;;;;16.17;10.85;;;;;;;;;;5052185;28;20121;-76
2023/04/01 00:51:55;;;;;;;18.07;11.67;;;;;;;;;;5052129;28;20024;-75
2023/04/01 00:54:24;;;;;;;19.67;11.68;;;;;;;;;;5050722;28;20021;-77
2023/04/01 00:57:02;;;;;;;19.55;11.15;;;;;;;;;;5051491;28;20402;-69
2023/04/01 00:59:34;;;;;;;19.98;12.55;;;;;;;;;;5050280;28;20501;-71
2023/04/01 01:02:02;;;;;;;18.92;11.23;;;;;;;;;;5051859;28;20040;-70
2023/04/01 01:04:33;;;;;;;19.55;11.43;;;;;;;;;;5051891;28;20112;-74
2023/04/01 01:07:27;;;;;;;17.10;9.48;;;;;;;;;;5051818;28;20514;-71
2023/04/01 01:10:05;;;;;;;16.73;9.57;;;;;;;;;;5048048;28;20053;-69
2023/04/01 01:12:41;;;;;;;16.30;9.18;;;;;;;;;;5052361;28;20040;-76
2023/04/01 01:15:26;;;;;;;19.27;10.95;;;;;;;;;;5052703;28;20112;-74
2023/04/01 01:18:00;;;;;;;21.95;11.13;;;;;;;;;;5052542;28;20072;-76
2023/04/01 01:21:17;;;;;;;22.05;10.40;;;;;;;;;;5052440;28;20470;-77
2023/04/01 01:23:46;;;;;;;18.10;9.88;;;;;;;;;;5051300;28;20048;-74
2023/04/01 01:26:26;;;;;;;19.63;10.90;;;;;;;;;;5052161;28;20478;-77
2023/04/01 01:29:19;;;;;;;21.45;11.77;;;;;;;;;;5052555;28;20029;-77
2023/04/01 01:32:16;;;;;;;21.17;10.43;;;;;;;;;;5052267;28;20028;-78
2023/04/01 01:35:04;;;;;;;19.17;9.95;;;;;;;;;;5029434;28;20041;-73
2023/04/01 01:37:32;;;;;;;18.17;10.25;;;;;;;;;;5029910;28;20033;-77
2023/04/01 01:40:06;;;;;;;16.92;10.15;;;;;;;;;;5029544;28;20033;-75
2023/04/01 01:42:35;;;;;;;17.20;9.35;;;;;;;;;;5028848;28;20538;-76
2023/04/01 01:45:02;;;;;;;20.50;8.75;;;;;;;;;;5028249;28;20096;-73
2023/04/01 01:47:29;;;;;;;18.73;9.50;;;;;;;;;;5029048;28;20027;-78
2023/04/01 01:49:56;;;;;;;18.33;8.73;;;;;;;;;;5029076;28;20037;-62
2023/04/01 01:52:23;;;;;;;14.35;8.45;;;;;;;;;;5028846;28;20068;-77
2023/04/01 01:54:53;;;;;;;10.55;6.72;;;;;;;;;;5028728;28;20562;-75
2023/04/01 01:57:36;;;;;;;;;;;;;;;;;;5029429;28;20092;-77
2023/04/01 02:00:12;;;;;;;9.15;5.22;;;;;;;;;;5029544;28;19920;-78
2023/04/01 02:02:40;;;;;;;8.38;5.03;;;;;;;;;;5029518;28;20026;-78
2023/04/01 02:05:10;;;;;;;10.00;6.80;;;;;;;;;;5029143;28;20100;-77
2023/04/01 02:07:37;;;;;;;9.23;5.83;;;;;;;;;;5029228;28;20156;-73
2023/04/01 02:10:03;;;;;;;10.13;6.40;;;;;;;;;;5029005;28;20032;-77
2023/04/01 02:12:30;;;;;;;11.43;6.80;;;;;;;;;;5048303;28;20116;-77
2023/04/01 02:15:14;;;;;;;6.38;3.90;;;;;;;;;;5051426;28;20025;-78
2023/04/01 02:17:43;;;;;;;6.03;3.25;;;;;;;;;;5051296;28;20115;-77
2023/04/01 02:20:14;;;;;;;4.97;3.40;;;;;;;;;;5051402;28;20127;-75
2023/04/01 02:22:48;;;;;;;6.57;3.85;;;;;;;;;;5051279;28;20031;-76
2023/04/01 02:25:17;;;;;;;7.45;3.50;;;;;;;;;;5049734;28;20028;-74
2023/04/01 02:27:44;;;;;;;6.33;4.10;;;;;;;;;;5050866;28;20025;-72
2023/04/01 02:30:10;;;;;;;7.55;4.22;;;;;;;;;;5051080;28;20025;-68
2023/04/01 02:32:38;;;;;;;7.80;4.55;;;;;;;;;;5051128;28;20025;-77
2023/04/01 02:35:10;;;;;;;6.78;4.35;;;;;;;;;;5050803;28;20033;-76
2023/04/01 02:37:36;;;;;;;6.72;4.53;;;;;;;;;;5051056;28;20080;-74
2023/04/01 02:40:06;;;;;;;9.10;4.50;;;;;;;;;;5050950;28;20033;-76
2023/04/01 02:42:31;;;;;;;9.88;4.80;;;;;;;;;;5051200;28;20470;-72
2023/04/01 02:44:57;;;;;;;9.15;4.97;;;;;;;;;;5050919;28;20037;-77
2023/04/01 02:47:22;;;;;;;6.82;4.18;;;;;;;;;;5050853;28;20055;-73
2023/04/01 02:49:48;;;;;;;8.20;4.70;;;;;;;;;;5050695;28;20021;-75
2023/04/01 02:52:13;;;;;;;6.90;4.03;;;;;;;;;;5050973;28;20391;-71
2023/04/01 02:54:39;;;;;;;6.22;3.75;;;;;;;;;;5050641;28;20036;-76
2023/04/01 02:57:04;;;;;;;7.03;4.45;;;;;;;;;;5050495;28;20056;-68
2023/04/01 02:59:30;;;;;;;6.43;4.25;;;;;;;;;;5050856;28;20029;-75
2023/04/01 03:01:55;;;;;;;6.07;4.07;;;;;;;;;;5050868;28;20021;-76
2023/04/01 03:04:20;;;;;;;8.55;3.97;;;;;;;;;;5050604;28;20029;-75
2023/04/01 03:06:46;;;;;;;7.63;4.60;;;;;;;;;;5050566;28;20512;-76
2023/04/01 03:09:11;;;;;;;9.00;5.10;;;;;;;;;;5050169;28;20033;-76
2023/04/01 03:11:37;;;;;;;8.50;5.30;;;;;;;;;;5050734;28;20064;-73
2023/04/01 03:14:02;;;;;;;9.13;5.07;;;;;;;;;;5050786;28;20134;-69
2023/04/01 03:16:28;;;;;;;8.88;5.35;;;;;;;;;;5050499;28;20029;-69
2023/04/01 03:18:55;;;;;;;9.27;5.22;;;;;;;;;;5050457;28;20112;-77
2023/04/01 03:21:22;;;;;;;9.75;5.78;;;;;;;;;;5050631;28;20099;-62
2023/04/01 03:23:48;;;;;;;7.95;5.05;;;;;;;;;;5050376;28;20529;-73
2023/04/01 03:26:14;;;;;;;8.95;5.38;;;;;;;;;;5050511;28;20056;-66
2023/04/01 03:28:39;;;;;;;9.77;5.60;;;;;;;;;;5050849;28;20025;-73
2023/04/01 03:31:05;;;;;;;9.05;5.72;;;;;;;;;;5050459;28;20032;-77
2023/04/01 03:33:31;;;;;;;11.05;5.90;;;;;;;;;;5050445;28;20028;-74
2023/04/01 03:35:56;;;;;;;9.45;5.65;;;;;;;;;;5049757;28;20066;-75
2023/04/01 03:38:22;;;;;;;10.20;5.47;;;;;;;;;;5051119;28;20029;-77
2023/04/01 03:40:47;;;;;;;9.38;5.00;;;;;;;;;;5054452;28;20034;-78
2023/04/01 03:43:13;;;;;;;7.88;5.28;;;;;;;;;;5054401;28;20017;-75
2023/04/01 03:45:45;;;;;;;11.02;4.88;;;;;;;;;;5054181;28;20035;-65
2023/04/01 03:48:11;;;;;;;7.93;5.28;;;;;;;;;;5054311;28;20028;-75
2023/04/01 03:50:36;;;;;;;7.53;5.18;;;;;;;;;;5053875;28;20029;-75
2023/04/01 03:53:02;;;;;;;8.82;4.68;;;;;;;;;;5053947;28;20029;-76
2023/04/01 03:55:27;;;;;;;7.40;4.80;;;;;;;;;;5054062;28;20021;-78
2023/04/01 03:57:53;;;;;;;10.90;5.10;;;;;;;;;;5053959;28;20036;-78
2023/04/01 04:00:18;;;;;;;8.68;4.90;;;;;;;;;;5054127;28;20063;-78
2023/04/01 04:02:44;;;;;;;8.70;5.10;;;;;;;;;;5054149;28;20021;-76
2023/04/01 04:05:10;;;;;;;8.45;4.85;;;;;;;;;;5053603;28;20036;-78
2023/04/01 04:07:36;;;;;;;7.38;4.75;;;;;;;;;;5053804;28;20033;-78
2023/04/01 04:10:01;;;;;;;9.07;4.82;;;;;;;;;;5053985;28;20032;-77
2023/04/01 04:12:26;;;;;;;8.65;5.00;;;;;;;;;;5054077;28;20052;-77
2023/04/01 04:14:52;;;;;;;9.73;5.57;;;;;;;;;;5053823;28;20100;-77
2023/04/01 04:17:17;;;;;;;8.80;5.05;;;;;;;;;;5053733;28;20510;-75
2023/04/01 04:19:43;;;;;;;9.32;5.38;;;;;;;;;;5053374;28;20459;-78
2023/04/01 04:22:08;;;;;;;8.15;5.00;;;;;;;;;;5053779;28;20021;-72
2023/04/01 04:24:35;;;;;;;8.63;4.88;;;;;;;;;;5053652;28;20186;-76
2023/04/01 04:27:00;;;;;;;11.10;5.35;;;;;;;;;;5053546;28;20386;-76
2023/04/01 04:29:26;;;;;;;8.10;5.03;;;;;;;;;;5053315;28;20082;-78
2023/04/01 04:31:51;;;;;;;9.25;4.85;;;;;;;;;;5053473;28;20152;-74
2023/04/01 04:34:18;;;;;;;8.70;5.13;;;;;;;;;;5053020;28;20036;-77
2023/04/01 04:36:44;;;;;;;9.20;5.53;;;;;;;;;;5053478;28;20371;-78
2023/04/01 04:39:09;;;;;;;9.43;5.60;;;;;;;;;;5053161;28;20025;-76
2023/04/01 04:41:37;;;;;;;8.55;5.40;;;;;;;;;;5053141;28;20548;-78
2023/04/01 04:44:03;;;;;;;9.95;5.43;;;;;;;;;;5053258;28;20052;-70
2023/04/01 04:46:29;;;;;;;12.18;5.72;;;;;;;;;;5052858;28;20033;-74
2023/04/01 04:48:55;;;;;;;7.93;4.95;;;;;;;;;;5052636;28;20020;-77
2023/04/01 04:51:21;;;;;;;9.65;5.13;;;;;;;;;;5052796;28;20083;-77
2023/04/01 04:53:47;;;;;;;10.68;5.30;;;;;;;;;;5052762;28;20029;-70
2023/04/01 04:56:13;;;;;;;7.15;5.20;;;;;;;;;;5052734;28;20166;-68
2023/04/01 04:58:39;;;;;;;9.68;5.40;;;;;;;;;;5052856;28;20071;-74
2023/04/01 05:01:13;;;;;;;7.45;4.90;;;;;;;;;;5053065;28;20040;-76
2023/04/01 05:03:39;;;;;;;11.02;5.15;;;;;;;;;;5052611;28;20037;-66
2023/04/01 05:06:05;;;;;;;8.45;5.15;;;;;;;;;;5052755;28;20075;-76
2023/04/01 05:08:32;;;;;;;11.05;5.68;;;;;;;;;;5052719;28;20029;-77
2023/04/01 05:10:58;;;;;;;6.28;4.40;;;;;;;;;;5052503;28;20021;-73
2023/04/01 05:13:23;;;;;;;11.10;5.88;;;;;;;;;;5052635;28;20032;-74
2023/04/01 05:15:49;;;;;;;8.27;5.57;;;;;;;;;;5052501;28;20385;-74
2023/04/01 05:18:15;;;;;;;8.93;5.53;;;;;;;;;;5052486;28;20489;-75
2023/04/01 05:20:46;;;;;;;9.10;5.65;;;;;;;;;;5052561;28;20040;-75
2023/04/01 05:23:12;;;;;;;9.55;5.47;;;;;;;;;;5052445;28;20040;-72
2023/04/01 05:25:38;;;;;;;12.45;5.95;;;;;;;;;;5052438;28;20458;-77
2023/04/01 05:28:03;;;;;;;9.45;4.82;;;;;;;;;;5052434;28;20327;-70
2023/04/01 05:30:29;;;;;;;9.73;5.40;;;;;;;;;;5052208;28;20481;-74
2023/04/01 05:32:54;;;;;;;9.15;5.93;;;;;;;;;;5052008;28;20013;-62
2023/04/01 05:35:20;;;;;;;8.38;5.43;;;;;;;;;;5051936;28;20056;-63
2023/04/01 05:37:45;;;;;;;9.75;5.68;;;;;;;;;;5052138;28;20025;-74
2023/04/01 05:40:11;;;;;;;12.63;6.50;;;;;;;;;;5052267;28;20032;-73
2023/04/01 05:42:36;;;;;;;14.43;7.75;;;;;;;;;;5052035;28;20079;-74
2023/04/01 05:45:02;;;;;;;13.77;8.38;;;;;;;;;;5051972;28;20459;-74
2023/04/01 05:47:27;;;;;;;16.08;9.82;;;;;;;;;;5051871;28;20505;-73
2023/04/01 05:49:53;;;;;;;13.50;7.95;;;;;;;;;;5050327;28;20466;-76
2023/04/01 05:52:18;;;;;;;18.70;12.07;;;;;;;;;;5051354;28;20066;-74
2023/04/01 05:54:44;;;;;;;18.35;10.48;;;;;;;;;;5051988;28;20405;-77
2023/04/01 05:57:09;;;;;;;14.65;8.65;;;;;;;;;;5051587;28;20156;-75
2023/04/01 05:59:35;;;;;;;15.88;10.63;;;;;;;;;;5051856;28;20031;-66
2023/04/01 06:02:01;;;;;;;17.88;11.20;;;;;;;;;;5050768;28;20132;-75
2023/04/01 06:04:31;;;;;;;18.77;11.50;;;;;;;;;;5050389;28;20016;-71
2023/04/01 06:06:57;;;;;;;15.13;9.52;;;;;;;;;;5051692;28;20470;-76
2023/04/01 06:09:29;;;;;;;17.55;10.98;;;;;;;;;;5051696;28;20025;-74
2023/04/01 06:12:22;;;;;;;17.55;11.68;;;;;;;;;;5051369;28;20052;-70
2023/04/01 06:15:14;;;;;;;23.17;14.57;;;;;;;;;;5051537;28;20017;-76
2023/04/01 06:18:10;;;;;;;16.58;10.45;;;;;;;;;;5051167;28;20029;-77
2023/04/01 06:20:42;;;;;;;13.05;7.63;;;;;;;;;;5051560;28;20017;-73
2023/04/01 06:23:26;;;;;;;14.82;7.50;;;;;;;;;;5051331;28;20021;-68
2023/04/01 06:26:31;;;;;;;11.55;7.00;;;;;;;;;;5051403;28;20047;-65
2023/04/01 06:29:09;;;;;;;15.43;8.23;;;;;;;;;;5051432;28;20033;-74
2023/04/01 06:32:00;;;;;;;16.58;9.45;;;;;;;;;;5050695;28;20423;-71
2023/04/01 06:34:37;;;;;;;22.48;13.43;;;;;;;;;;5051067;28;20033;-73
2023/04/01 06:37:27;;;;;;;22.45;13.23;;;;;;;;;;5051274;28;20024;-76
2023/04/01 06:39:58;;;;;;;26.00;13.90;;;;;;;;;;5051235;28;20443;-78
2023/04/01 06:42:50;;;;;;;18.48;12.15;;;;;;;;;;5051231;28;20029;-73
2023/04/01 06:45:29;;;;;;;24.23;15.10;;;;;;;;;;5028597;28;20495;-77
2023/04/01 06:48:10;;;;;;;22.77;15.13;;;;;;;;;;5028416;28;20053;-78
2023/04/01 06:51:13;;;;;;;21.05;13.15;;;;;;;;;;5028785;28;20208;-77
2023/04/01 06:53:41;;;;;;;20.73;12.85;;;;;;;;;;5028119;28;20522;-78
2023/04/01 06:56:14;;;;;;;19.63;12.45;;;;;;;;;;5028364;28;20333;-78
2023/04/01 06:58:49;;;;;;;19.08;12.15;;;;;;;;;;5028657;28;20487;-78
2023/04/01 07:01:21;;;;;;;16.85;10.02;;;;;;;;;;5028591;28;20136;-77
2023/04/01 07:03:47;;;;;;;14.20;8.20;;;;;;;;;;5028373;28;20094;-77
2023/04/01 07:06:28;;;;;;;12.80;7.82;;;;;;;;;;5028618;28;20046;-76
2023/04/01 07:09:00;;;;;;;10.52;6.38;;;;;;;;;;5028697;28;20049;-77
2023/04/01 07:11:31;;;;;;;11.77;6.53;;;;;;;;;;5028462;28;20153;-71
2023/04/01 07:14:08;;;;;;;11.70;6.78;;;;;;;;;;5031353;28;20029;-77
2023/04/01 07:16:41;;;;;;;12.30;7.70;;;;;;;;;;5032766;28;20445;-76
2023/04/01 07:19:14;;;;;;;22.55;14.57;;;;;;;;;;5032594;28;20026;-76
2023/04/01 07:21:44;;;;;;;21.35;13.75;;;;;;;;;;5038043;28;20045;-73
2023/04/01 07:24:17;;;;;;;23.08;12.80;;;;;;;;;;5054854;28;20029;-72
2023/04/01 07:26:43;;;;;;;19.52;12.60;;;;;;;;;;5054780;28;20033;-76
2023/04/01 07:29:13;;;;;;;20.45;12.48;;;;;;;;;;5054447;28;20390;-77
2023/04/01 07:32:06;;;;;;;20.83;13.43;;;;;;;;;;5054586;28;20416;-77
2023/04/01 07:34:55;;;;;;;14.15;9.05;;;;;;;;;;5052933;28;20024;-77
2023/04/01 07:37:45;;;;;;;14.93;9.80;;;;;;;;;;5050760;28;20045;-77
2023/04/01 07:40:29;;;;;;;19.70;10.85;;;;;;;;;;5054619;28;20162;-75
2023/04/01 07:43:47;;;;;;;20.20;13.32;;;;;;;;;;5062730;28;20464;-66
2023/04/01 07:46:43;;;;;;;18.05;11.93;;;;;;;;;;5028370;28;20128;-69
2023/04/01 07:49:22;;;;;;;19.80;10.73;;;;;;;;;;5033403;28;20045;-71
2023/04/01 07:51:55;;;;;;;16.80;9.85;;;;;;;;;;5028227;28;20052;-63
2023/04/01 07:54:27;;;;;;;16.48;10.98;;;;;;;;;;5031911;28;20033;-72
2023/04/01 07:56:55;;;;;;;16.02;9.00;;;;;;;;;;5031636;28;20429;-74
2023/04/01 07:59:43;;;;;;;14.60;9.32;;;;;;;;;;5031911;28;20370;-71
2023/04/01 08:02:30;;;;;;;22.00;11.02;;;;;;;;;;4945635;28;20033;-79
2023/04/01 08:05:05;;;;;;;17.48;10.98;;;;;;;;;;4945244;28;20034;-71
2023/04/01 08:07:44;;;;;;;20.73;11.52;;;;;;;;;;4945164;28;20042;-69
2023/04/01 08:10:21;;;;;;;16.60;10.80;;;;;;;;;;4951063;28;20023;-78
2023/04/01 08:13:08;;;;;;;21.27;11.63;;;;;;;;;;4945547;28;20039;-69
2023/04/01 08:15:52;;;;;;;24.08;9.95;;;;;;;;;;4945215;28;20591;-73
2023/04/01 08:19:03;;;;;;;17.42;10.63;;;;;;;;;;4944996;29;20070;-65
2023/04/01 08:21:36;;;;;;;19.30;9.52;;;;;;;;;;4956430;28;20126;-74
2023/04/01 08:24:14;;;;;;;12.80;8.27;;;;;;;;;;4967508;28;20034;-62
2023/04/01 08:26:45;;;;;;;11.85;7.82;;;;;;;;;;4969844;28;20093;-75
2023/04/01 08:29:13;;;;;;;14.43;8.82;;;;;;;;;;4963827;28;20023;-76
2023/04/01 08:31:44;;;;;;;12.48;8.52;;;;;;;;;;4965395;28;20517;-72
2023/04/01 08:34:22;;;;;;;14.43;9.70;;;;;;;;;;4967615;28;20030;-76
2023/04/01 08:37:00;;;;;;;15.85;10.45;;;;;;;;;;4965730;28;20417;-66
2023/04/01 08:39:35;;;;;;;11.95;7.35;;;;;;;;;;5017846;28;20037;-72
2023/04/01 08:42:00;;;;;;;11.57;7.55;;;;;;;;;;5048465;28;20083;-68
2023/04/01 08:45:00;;;;;;;10.93;7.70;;;;;;;;;;5053280;28;20025;-70
2023/04/01 08:48:08;;;;;;;10.60;6.20;;;;;;;;;;5051607;28;20143;-69
2023/04/01 08:50:45;;;;;;;10.18;6.40;;;;;;;;;;5053021;28;20033;-77
2023/04/01 08:53:29;;;;;;;12.20;8.20;;;;;;;;;;5053983;28;20017;-72
2023/04/01 08:56:06;;;;;;;9.98;6.50;;;;;;;;;;5053745;28;20049;-74
2023/04/01 08:58:34;;;;;;;12.25;8.43;;;;;;;;;;5054022;28;20447;-71
2023/04/01 09:01:23;;;;;;;13.07;9.18;;;;;;;;;;5054290;28;20107;-63
2023/04/01 09:04:04;;;;;;;16.40;10.55;;;;;;;;;;5050757;28;20563;-65
2023/04/01 09:06:33;;;;;;;12.75;8.88;;;;;;;;;;5053740;28;20037;-67
2023/04/01 09:08:59;;;;;;;11.93;9.13;;;;;;;;;;5037075;28;20035;-66
2023/04/01 09:12:15;;;;;;;8.88;6.22;;;;;;;;;;5049982;28;20025;-62
2023/04/01 09:15:26;;;;;;;8.40;4.90;;;;;;;;;;5048927;28;20048;-67
2023/04/01 09:18:12;;;;;;;6.50;4.32;;;;;;;;;;5051816;28;20034;-68
2023/04/01 09:21:08;;;;;;;8.95;4.03;;;;;;;;;;5044255;28;20136;-76
2023/04/01 09:23:57;;;;;;;8.05;4.13;;;;;;;;;;5034132;28;20030;-77
2023/04/01 09:26:44;;;;;;;5.88;3.17;;;;;;;;;;5031889;28;20036;-76
2023/04/01 09:29:31;;;;;;;5.85;3.38;;;;;;;;;;5035919;28;20041;-74
2023/04/01 09:32:26;;;;;;;6.43;4.07;;;;;;;;;;5047387;28;20025;-68
2023/04/01 09:35:16;;;;;;;6.07;4.20;;;;;;;;;;5040378;28;20045;-75
2023/04/01 09:38:19;;;;;;;6.05;3.95;;;;;;;;;;5052568;28;20125;-69
2023/04/01 09:40:56;;;;;;;8.77;4.55;;;;;;;;;;5052451;28;20106;-78
2023/04/01 09:43:44;;;;;;;7.57;4.22;;;;;;;;;;5054272;28;20044;-74
2023/04/01 09:46:25;;;;;;;11.38;4.65;;;;;;;;;;5057441;28;20471;-78
2023/04/01 09:49:09;;;;;;;8.85;4.88;;;;;;;;;;5053801;28;20117;-79
2023/04/01 09:51:57;;;;;;;8.20;3.97;;;;;;;;;;5050314;28;20499;-76
2023/04/01 09:54:36;;;;;;;7.75;3.80;;;;;;;;;;5053195;28;20036;-74
2023/04/01 09:57:19;;;;;;;5.75;3.35;;;;;;;;;;5055634;28;20033;-70
2023/04/01 10:00:29;;;;;;;6.72;3.60;;;;;;;;;;5052769;28;20040;-75
2023/04/01 10:03:13;;;;;;;5.60;3.50;;;;;;;;;;5024186;28;20459;-63
2023/04/01 10:06:06;;;;;;;5.35;3.30;;;;;;;;;;5019934;28;20048;-66
2023/04/01 10:09:08;;;;;;;7.25;3.47;;;;;;;;;;5025167;28;20113;-68
2023/04/01 10:11:52;;;;;;;5.72;3.20;;;;;;;;;;5047957;28;20032;-76
2023/04/01 10:14:42;;;;;;;7.72;3.63;;;;;;;;;;5049023;28;20029;-73
2023/04/01 10:17:38;;;;;;;6.70;3.10;;;;;;;;;;5049315;28;20048;-76
2023/04/01 10:20:28;;;;;;;5.97;3.28;;;;;;;;;;5048004;28;20164;-73
2023/04/01 10:22:57;;;;;;;;;;;;;;;;;;5049501;28;20479;-75
2023/04/01 10:25:42;;;;;;;6.43;4.40;;;;;;;;;;5048125;28;19959;-71
2023/04/01 10:28:34;;;;;;;9.52;5.93;;;;;;;;;;5047521;28;20095;-75
2023/04/01 10:31:17;;;;;;;8.55;6.03;;;;;;;;;;5047423;28;20027;-77
2023/04/01 10:34:10;;;;;;;8.38;4.90;;;;;;;;;;5037108;28;20053;-71
2023/04/01 10:36:48;;;;;;;7.40;4.10;;;;;;;;;;5027941;28;20191;-77
2023/04/01 10:39:29;;;;;;;7.72;3.85;;;;;;;;;;5014909;28;20033;-63
2023/04/01 10:42:32;;;;;;;6.30;3.72;;;;;;;;;;5031475;28;20104;-63
2023/04/01 10:45:25;;;;;;;4.70;2.83;;;;;;;;;;5031354;28;20079;-72
2023/04/01 10:47:56;;;;;;;7.63;3.35;;;;;;;;;;5030659;28;20372;-70
2023/04/01 10:50:40;;;;;;;5.80;3.60;;;;;;;;;;5047873;28;20025;-64
2023/04/01 10:53:30;;;;;;;8.23;3.72;;;;;;;;;;5063009;28;20507;-69
2023/04/01 10:56:20;;;;;;;6.82;3.15;;;;;;;;;;5054054;28;20052;-63
2023/04/01 10:59:15;;;;;;;5.93;3.60;;;;;;;;;;5060973;28;20048;-74
2023/04/01 11:02:02;;;;;;;6.45;3.50;;;;;;;;;;5067310;28;20025;-70
2023/04/01 11:04:33;;;;;;;11.18;3.97;;;;;;;;;;5045564;28;20028;-68
2023/04/01 11:07:17;;;;;;;6.82;4.40;;;;;;;;;;5051205;28;20041;-62
2023/04/01 11:10:01;;;;;;;10.52;5.30;;;;;;;;;;5057154;28;20032;-63
2023/04/01 11:12:34;;;;;;;6.55;3.70;;;;;;;;;;5046780;28;20036;-64
2023/04/01 11:15:23;;;;;;;8.40;4.53;;;;;;;;;;5049371;28;20037;-71
2023/04/01 11:18:13;;;;;;;14.47;5.30;;;;;;;;;;5052535;28;20025;-65
2023/04/01 11:20:46;;;;;;;11.07;5.55;;;;;;;;;;5047031;28;20498;-63
2023/04/01 11:23:24;;;;;;;10.27;4.80;;;;;;;;;;5052228;28;20039;-65
2023/04/01 11:26:07;;;;;;;7.50;4.10;;;;;;;;;;5054736;28;20087;-71
2023/04/01 11:29:07;;;;;;;12.38;4.05;;;;;;;;;;5051513;28;20151;-67
2023/04/01 11:31:38;;;;;;;8.23;4.10;;;;;;;;;;5052295;28;20055;-75
2023/04/01 11:34:33;;;;;;;6.93;4.20;;;;;;;;;;5054096;28;20465;-67
2023/04/01 11:37:20;;;;;;;6.85;4.45;;;;;;;;;;5029397;28;20045;-75
2023/04/01 11:40:24;;;;;;;6.15;3.65;;;;;;;;;;5029521;28;20033;-65
2023/04/01 11:42:52;;;;;;;11.05;3.75;;;;;;;;;;5029323;28;20124;-73
2023/04/01 11:45:35;;;;;;;6.30;4.53;;;;;;;;;;5012744;28;20598;-72
2023/04/01 11:48:12;;;;;;;14.38;7.15;;;;;;;;;;5028084;28;20757;-76
2023/04/01 11:51:01;;;;;;;12.30;8.30;;;;;;;;;;5025825;28;20038;-69
2023/04/01 11:54:04;;;;;;;10.50;6.72;;;;;;;;;;5025565;28;20036;-75
2023/04/01 11:56:32;;;;;;;6.03;4.07;;;;;;;;;;5027401;28;20052;-74
2023/04/01 11:59:19;;;;;;;13.88;4.25;;;;;;;;;;5026029;28;20025;-72
2023/04/01 12:02:05;;;;;;;8.40;3.80;;;;;;;;;;5032353;28;20038;-62
2023/04/01 12:05:02;;;;;;;8.13;3.80;;;;;;;;;;5032454;28;20120;-70
2023/04/01 12:07:49;;;;;;;5.28;3.70;;;;;;;;;;5033079;28;20042;-77
2023/04/01 12:10:24;;;;;;;6.90;3.65;;;;;;;;;;5032804;28;20049;-75
2023/04/01 12:13:41;;;;;;;7.97;4.85;;;;;;;;;;5033343;28;20040;-77
2023/04/01 12:16:16;;;;;;;10.07;7.22;;;;;;;;;;5013179;28;20069;-76
2023/04/01 12:18:50;;;;;;;6.53;4.03;;;;;;;;;;5012836;28;20025;-75
2023/04/01 12:21:37;;;;;;;7.25;3.80;;;;;;;;;;5013099;28;20033;-77
2023/04/01 12:24:40;;;;;;;7.35;3.25;;;;;;;;;;5012791;28;20104;-77
2023/04/01 12:27:26;;;;;;;6.93;3.70;;;;;;;;;;5012984;28;20030;-77
2023/04/01 12:30:06;;;;;;;8.25;3.70;;;;;;;;;;5012717;28;20044;-77
2023/04/01 12:32:45;;;;;;;8.35;3.78;;;;;;;;;;5012215;28;20045;-71
2023/04/01 12:35:23;;;;;;;10.30;4.55;;;;;;;;;;5012621;28;20037;-64
2023/04/01 12:38:07;;;;;;;12.13;6.28;;;;;;;;;;5012578;28;20038;-71
2023/04/01 12:40:54;;;;;;;7.68;4.28;;;;;;;;;;5012633;28;20034;-74
2023/04/01 12:43:34;;;;;;;6.93;3.70;;;;;;;;;;5012600;28;20034;-65
2023/04/01 12:46:37;;;;;;;7.93;4.30;;;;;;;;;;5012463;28;20187;-66
2023/04/01 12:49:21;;;;;;;9.63;5.25;;;;;;;;;;5012254;28;20037;-74
2023/04/01 12:52:05;;;;;;;8.60;3.85;;;;;;;;;;5026281;28;20036;-74
2023/04/01 12:54:59;;;;;;;12.30;7.85;;;;;;;;;;5054121;28;20470;-76
2023/04/01 12:57:53;;;;;;;70.20;25.52;;;;;;;;;;5054155;28;20056;-76
2023/04/01 13:00:48;;;;;;;10.93;5.38;;;;;;;;;;5054354;28;20578;-76
2023/04/01 13:03:45;;;;;;;33.38;9.93;;;;;;;;;;5053961;28;20032;-78
2023/04/01 13:06:15;;;;;;;27.20;11.95;;;;;;;;;;5054100;28;20025;-62
2023/04/01 13:09:23;;;;;;;31.63;13.80;;;;;;;;;;5049918;28;20382;-69
2023/04/01 13:12:23;;;;;;;62.78;20.15;;;;;;;;;;5040588;28;20033;-68
2023/04/01 13:14:49;;;;;;;13.63;5.80;;;;;;;;;;5047756;28;20047;-69
2023/04/01 13:17:22;;;;;;;6.43;3.00;;;;;;;;;;5053483;28;20025;-61
2023/04/01 13:20:30;;;;;;;22.17;11.27;;;;;;;;;;5053486;28;20029;-76
2023/04/01 13:23:24;;;;;;;8.63;3.72;;;;;;;;;;5011772;28;20087;-77
2023/04/01 13:26:28;;;;;;;7.40;4.50;;;;;;;;;;5011364;28;20034;-64
2023/04/01 13:29:13;;;;;;;7.35;4.05;;;;;;;;;;5011782;28;20030;-70
2023/04/01 13:31:48;;;;;;;6.97;3.28;;;;;;;;;;5011226;28;20487;-71
2023/04/01 13:34:47;;;;;;;7.78;3.33;;;;;;;;;;5011390;28;20116;-69
2023/04/01 13:37:19;;;;;;;7.63;3.65;;;;;;;;;;5011577;28;20164;-62
2023/04/01 13:39:44;;;;;;;10.18;4.32;;;;;;;;;;5011427;28;20037;-62
2023/04/01 13:42:27;;;;;;;5.78;3.40;;;;;;;;;;5011549;28;20036;-72
2023/04/01 13:45:02;;;;;;;7.05;3.10;;;;;;;;;;5011570;28;20105;-61
2023/04/01 13:48:09;;;;;;;6.95;3.30;;;;;;;;;;5011208;28;20116;-66
2023/04/01 13:51:05;;;;;;;5.78;3.50;;;;;;;;;;5011490;28;20059;-64
2023/04/01 13:53:49;;;;;;;6.03;3.40;;;;;;;;;;5011117;28;20081;-64
2023/04/01 13:56:35;;;;;;;10.52;4.65;;;;;;;;;;5011136;28;20053;-64
2023/04/01 13:59:21;;;;;;;9.18;4.82;;;;;;;;;;5016581;28;20041;-72
2023/04/01 14:01:49;;;;;;;7.78;3.85;;;;;;;;;;4990965;28;20090;-68
2023/04/01 14:04:20;;;;;;;10.18;4.28;;;;;;;;;;4991574;28;20599;-70
2023/04/01 14:07:41;;;;;;;6.68;3.80;;;;;;;;;;4991586;28;20464;-74
2023/04/01 14:10:16;;;;;;;5.63;2.95;;;;;;;;;;4948312;28;20031;-77
2023/04/01 14:12:59;;;;;;;6.70;3.10;;;;;;;;;;4952767;29;20393;-75
2023/04/01 14:15:33;;;;;;;6.00;3.58;;;;;;;;;;4952344;29;20436;-67
2023/04/01 14:18:26;;;;;;;5.30;3.40;;;;;;;;;;4952628;28;20034;-69
2023/04/01 14:21:23;;;;;;;7.38;4.13;;;;;;;;;;4952672;28;20113;-70
2023/04/01 14:24:13;;;;;;;8.82;4.10;;;;;;;;;;4951582;28;20109;-65
2023/04/01 14:26:47;;;;;;;8.80;3.88;;;;;;;;;;4950901;29;20505;-63
2023/04/01 14:29:44;;;;;;;7.00;4.07;;;;;;;;;;4949717;29;20031;-62
2023/04/01 14:32:34;;;;;;;8.73;4.93;;;;;;;;;;4932308;29;20039;-70
2023/04/01 14:35:30;;;;;;;8.85;4.75;;;;;;;;;;4930464;29;20039;-71
2023/04/01 14:38:46;;;;;;;7.88;4.38;;;;;;;;;;4932026;29;20048;-65
2023/04/01 14:41:23;;;;;;;10.90;4.82;;;;;;;;;;4952102;29;20493;-66
2023/04/01 14:44:19;;;;;;;9.02;4.78;;;;;;;;;;4951210;29;20092;-79
2023/04/01 14:47:15;;;;;;;10.32;4.63;;;;;;;;;;4951819;29;20027;-79
2023/04/01 14:49:52;;;;;;;8.43;3.63;;;;;;;;;;4952210;29;20125;-77
2023/04/01 14:52:21;;;;;;;8.55;3.60;;;;;;;;;;4952233;28;20035;-77
2023/04/01 14:54:49;;;;;;;10.13;3.50;;;;;;;;;;4939581;29;20523;-77
2023/04/01 14:57:25;;;;;;;7.78;3.75;;;;;;;;;;4934611;29;20501;-70
2023/04/01 15:00:09;;;;;;;7.03;3.83;;;;;;;;;;4931321;29;20390;-78
2023/04/01 15:02:58;;;;;;;10.60;4.60;;;;;;;;;;4929054;29;20044;-78
2023/04/01 15:05:43;;;;;;;8.20;3.80;;;;;;;;;;4948784;29;20042;-77
2023/04/01 15:08:15;;;;;;;7.88;3.90;;;;;;;;;;4950230;28;20424;-70
2023/04/01 15:11:22;;;;;;;5.88;3.88;;;;;;;;;;5007372;28;20030;-78
2023/04/01 15:14:10;;;;;;;12.73;5.05;;;;;;;;;;5007882;28;20053;-79
2023/04/01 15:16:45;;;;;;;8.63;4.60;;;;;;;;;;5026420;28;20037;-67
2023/04/01 15:19:41;;;;;;;6.68;3.25;;;;;;;;;;5051727;28;20021;-77
2023/04/01 15:22:20;;;;;;;7.95;4.22;;;;;;;;;;5049907;28;20017;-70
2023/04/01 15:25:09;;;;;;;7.75;4.00;;;;;;;;;;5049891;28;20047;-68
2023/04/01 15:27:53;;;;;;;11.88;4.15;;;;;;;;;;5050361;28;20116;-78
2023/04/01 15:30:32;;;;;;;6.95;4.05;;;;;;;;;;5051302;28;20025;-78
2023/04/01 15:33:30;;;;;;;11.98;4.65;;;;;;;;;;5051354;28;20017;-72
2023/04/01 15:36:01;;;;;;;17.55;5.13;;;;;;;;;;5047143;28;20099;-70